sensor_id;sensor_type;location;lat;lon;timestamp;P1;durP1;ratioP1;P2;durP2;ratioP2
49131;SDS011;35149;51.196;6.204;2024-02-15T00:00:33;10.68;;;5.90;;
49131;SDS011;35149;51.196;6.204;2024-02-15T00:03:00;8.60;;;6.00;;
49131;SDS011;35149;51.196;6.204;2024-02-15T00:05:27;9.00;;;5.20;;
49131;SDS011;35149;51.196;6.204;2024-02-15T00:07:54;8.73;;;5.22;;
49131;SDS011;35149;51.196;6.204;2024-02-15T00:10:20;7.45;;;4.93;;
49131;SDS011;35149;51.196;6.204;2024-02-15T00:12:49;9.00;;;5.40;;
49131;SDS011;35149;51.196;6.204;2024-02-15T00:15:17;13.13;;;7.03;;
49131;SDS011;35149;51.196;6.204;2024-02-15T00:17:45;7.32;;;4.70;;
49131;SDS011;35149;51.196;6.204;2024-02-15T00:20:13;7.25;;;5.53;;
49131;SDS011;35149;51.196;6.204;2024-02-15T00:22:40;7.78;;;5.40;;
49131;SDS011;35149;51.196;6.204;2024-02-15T00:25:09;9.48;;;6.15;;
49131;SDS011;35149;51.196;6.204;2024-02-15T00:27:37;5.70;;;4.25;;
49131;SDS011;35149;51.196;6.204;2024-02-15T00:30:04;5.28;;;3.92;;
49131;SDS011;35149;51.196;6.204;2024-02-15T00:32:33;8.45;;;4.78;;
49131;SDS011;35149;51.196;6.204;2024-02-15T00:35:01;8.90;;;4.57;;
49131;SDS011;35149;51.196;6.204;2024-02-15T00:37:28;7.60;;;4.63;;
49131;SDS011;35149;51.196;6.204;2024-02-15T00:39:55;8.02;;;5.30;;
49131;SDS011;35149;51.196;6.204;2024-02-15T00:42:22;6.53;;;5.00;;
49131;SDS011;35149;51.196;6.204;2024-02-15T00:44:48;7.72;;;4.18;;
49131;SDS011;35149;51.196;6.204;2024-02-15T00:47:15;6.57;;;4.65;;
49131;SDS011;35149;51.196;6.204;2024-02-15T00:49:44;5.43;;;3.92;;
49131;SDS011;35149;51.196;6.204;2024-02-15T00:52:11;5.35;;;4.10;;
49131;SDS011;35149;51.196;6.204;2024-02-15T00:54:38;6.38;;;4.38;;
49131;SDS011;35149;51.196;6.204;2024-02-15T00:57:05;7.95;;;4.60;;
49131;SDS011;35149;51.196;6.204;2024-02-15T00:59:31;6.97;;;3.92;;
49131;SDS011;35149;51.196;6.204;2024-02-15T01:02:02;6.80;;;3.95;;
49131;SDS011;35149;51.196;6.204;2024-02-15T01:04:29;5.63;;;3.95;;
49131;SDS011;35149;51.196;6.204;2024-02-15T01:06:56;6.22;;;3.97;;
49131;SDS011;35149;51.196;6.204;2024-02-15T01:09:23;6.57;;;4.03;;
49131;SDS011;35149;51.196;6.204;2024-02-15T01:11:49;11.23;;;4.80;;
49131;SDS011;35149;51.196;6.204;2024-02-15T01:14:16;6.82;;;4.10;;
49131;SDS011;35149;51.196;6.204;2024-02-15T01:16:43;5.82;;;4.72;;
49131;SDS011;35149;51.196;6.204;2024-02-15T01:19:10;7.85;;;3.97;;
49131;SDS011;35149;51.196;6.204;2024-02-15T01:21:37;10.82;;;5.07;;
49131;SDS011;35149;51.196;6.204;2024-02-15T01:24:04;6.63;;;4.80;;
49131;SDS011;35149;51.196;6.204;2024-02-15T01:26:32;9.35;;;4.32;;
49131;SDS011;35149;51.196;6.204;2024-02-15T01:29:00;9.10;;;4.78;;
49131;SDS011;35149;51.196;6.204;2024-02-15T01:31:29;9.80;;;3.80;;
49131;SDS011;35149;51.196;6.204;2024-02-15T01:33:56;5.75;;;3.85;;
49131;SDS011;35149;51.196;6.204;2024-02-15T01:36:23;6.22;;;4.32;;
49131;SDS011;35149;51.196;6.204;2024-02-15T01:38:50;8.43;;;3.35;;
49131;SDS011;35149;51.196;6.204;2024-02-15T01:41:17;5.85;;;3.78;;
49131;SDS011;35149;51.196;6.204;2024-02-15T01:43:44;9.20;;;4.07;;
49131;SDS011;35149;51.196;6.204;2024-02-15T01:46:12;10.93;;;4.07;;
49131;SDS011;35149;51.196;6.204;2024-02-15T01:48:40;8.32;;;4.45;;
49131;SDS011;35149;51.196;6.204;2024-02-15T01:51:08;6.50;;;3.67;;
49131;SDS011;35149;51.196;6.204;2024-02-15T01:53:36;6.85;;;5.05;;
49131;SDS011;35149;51.196;6.204;2024-02-15T01:56:04;5.43;;;3.45;;
49131;SDS011;35149;51.196;6.204;2024-02-15T01:58:31;6.75;;;3.40;;
49131;SDS011;35149;51.196;6.204;2024-02-15T02:00:59;4.68;;;3.63;;
49131;SDS011;35149;51.196;6.204;2024-02-15T02:03:27;5.13;;;3.83;;
49131;SDS011;35149;51.196;6.204;2024-02-15T02:05:54;6.32;;;3.45;;
49131;SDS011;35149;51.196;6.204;2024-02-15T02:08:21;8.15;;;4.18;;
49131;SDS011;35149;51.196;6.204;2024-02-15T02:10:48;5.32;;;3.15;;
49131;SDS011;35149;51.196;6.204;2024-02-15T02:13:16;4.55;;;3.38;;
49131;SDS011;35149;51.196;6.204;2024-02-15T02:15:43;8.13;;;4.13;;
49131;SDS011;35149;51.196;6.204;2024-02-15T02:18:10;6.40;;;4.75;;
49131;SDS011;35149;51.196;6.204;2024-02-15T02:20:37;5.65;;;3.88;;
49131;SDS011;35149;51.196;6.204;2024-02-15T02:23:13;6.63;;;3.95;;
49131;SDS011;35149;51.196;6.204;2024-02-15T02:25:41;6.38;;;3.70;;
49131;SDS011;35149;51.196;6.204;2024-02-15T02:28:09;5.90;;;4.30;;
49131;SDS011;35149;51.196;6.204;2024-02-15T02:30:36;8.52;;;3.42;;
49131;SDS011;35149;51.196;6.204;2024-02-15T02:33:10;6.05;;;3.72;;
49131;SDS011;35149;51.196;6.204;2024-02-15T02:35:44;8.73;;;3.17;;
49131;SDS011;35149;51.196;6.204;2024-02-15T02:38:11;5.82;;;3.45;;
49131;SDS011;35149;51.196;6.204;2024-02-15T02:40:39;8.63;;;3.67;;
49131;SDS011;35149;51.196;6.204;2024-02-15T02:43:06;4.47;;;2.78;;
49131;SDS011;35149;51.196;6.204;2024-02-15T02:45:33;7.07;;;3.47;;
49131;SDS011;35149;51.196;6.204;2024-02-15T02:47:59;6.60;;;3.33;;
49131;SDS011;35149;51.196;6.204;2024-02-15T02:50:26;7.85;;;3.17;;
49131;SDS011;35149;51.196;6.204;2024-02-15T02:52:53;7.40;;;3.10;;
49131;SDS011;35149;51.196;6.204;2024-02-15T02:55:20;8.38;;;5.60;;
49131;SDS011;35149;51.196;6.204;2024-02-15T02:57:47;9.13;;;3.20;;
49131;SDS011;35149;51.196;6.204;2024-02-15T03:00:14;7.05;;;3.75;;
49131;SDS011;35149;51.196;6.204;2024-02-15T03:02:43;13.05;;;3.30;;
49131;SDS011;35149;51.196;6.204;2024-02-15T03:05:10;4.53;;;2.83;;
49131;SDS011;35149;51.196;6.204;2024-02-15T03:07:38;3.53;;;2.42;;
49131;SDS011;35149;51.196;6.204;2024-02-15T03:10:08;4.00;;;2.58;;
49131;SDS011;35149;51.196;6.204;2024-02-15T03:12:36;4.90;;;2.40;;
49131;SDS011;35149;51.196;6.204;2024-02-15T03:15:04;6.25;;;2.55;;
49131;SDS011;35149;51.196;6.204;2024-02-15T03:17:37;6.80;;;2.78;;
49131;SDS011;35149;51.196;6.204;2024-02-15T03:20:06;6.72;;;2.22;;
49131;SDS011;35149;51.196;6.204;2024-02-15T03:22:54;3.42;;;2.22;;
49131;SDS011;35149;51.196;6.204;2024-02-15T03:25:22;4.03;;;2.20;;
49131;SDS011;35149;51.196;6.204;2024-02-15T03:27:50;4.28;;;2.20;;
49131;SDS011;35149;51.196;6.204;2024-02-15T03:30:18;7.82;;;2.17;;
49131;SDS011;35149;51.196;6.204;2024-02-15T03:32:46;4.60;;;1.88;;
49131;SDS011;35149;51.196;6.204;2024-02-15T03:35:18;3.53;;;2.30;;
49131;SDS011;35149;51.196;6.204;2024-02-15T03:37:45;6.32;;;1.98;;
49131;SDS011;35149;51.196;6.204;2024-02-15T03:40:12;4.45;;;2.22;;
49131;SDS011;35149;51.196;6.204;2024-02-15T03:42:40;6.13;;;1.88;;
49131;SDS011;35149;51.196;6.204;2024-02-15T03:45:07;2.55;;;1.70;;
49131;SDS011;35149;51.196;6.204;2024-02-15T03:47:35;4.53;;;2.22;;
49131;SDS011;35149;51.196;6.204;2024-02-15T03:50:02;2.22;;;1.50;;
49131;SDS011;35149;51.196;6.204;2024-02-15T03:52:34;4.85;;;1.95;;
49131;SDS011;35149;51.196;6.204;2024-02-15T03:55:01;3.72;;;1.80;;
49131;SDS011;35149;51.196;6.204;2024-02-15T03:57:28;5.20;;;2.30;;
49131;SDS011;35149;51.196;6.204;2024-02-15T03:59:55;4.25;;;1.90;;
49131;SDS011;35149;51.196;6.204;2024-02-15T04:02:25;5.07;;;2.05;;
49131;SDS011;35149;51.196;6.204;2024-02-15T04:04:53;3.88;;;2.22;;
49131;SDS011;35149;51.196;6.204;2024-02-15T04:07:21;4.95;;;1.80;;
49131;SDS011;35149;51.196;6.204;2024-02-15T04:09:49;6.82;;;2.03;;
49131;SDS011;35149;51.196;6.204;2024-02-15T04:12:16;3.08;;;1.60;;
49131;SDS011;35149;51.196;6.204;2024-02-15T04:14:43;3.83;;;1.50;;
49131;SDS011;35149;51.196;6.204;2024-02-15T04:17:11;6.07;;;1.75;;
49131;SDS011;35149;51.196;6.204;2024-02-15T04:19:40;3.03;;;1.58;;
49131;SDS011;35149;51.196;6.204;2024-02-15T04:22:07;6.22;;;2.40;;
49131;SDS011;35149;51.196;6.204;2024-02-15T04:24:34;3.20;;;1.25;;
49131;SDS011;35149;51.196;6.204;2024-02-15T04:27:00;2.15;;;1.40;;
49131;SDS011;35149;51.196;6.204;2024-02-15T04:29:27;1.90;;;1.30;;
49131;SDS011;35149;51.196;6.204;2024-02-15T04:31:54;5.13;;;1.63;;
49131;SDS011;35149;51.196;6.204;2024-02-15T04:34:21;3.83;;;1.08;;
49131;SDS011;35149;51.196;6.204;2024-02-15T04:36:48;6.43;;;2.22;;
49131;SDS011;35149;51.196;6.204;2024-02-15T04:39:21;3.38;;;1.42;;
49131;SDS011;35149;51.196;6.204;2024-02-15T04:41:53;3.00;;;1.13;;
49131;SDS011;35149;51.196;6.204;2024-02-15T04:44:21;2.13;;;1.30;;
49131;SDS011;35149;51.196;6.204;2024-02-15T04:46:53;5.80;;;1.60;;
49131;SDS011;35149;51.196;6.204;2024-02-15T04:49:20;3.35;;;1.58;;
49131;SDS011;35149;51.196;6.204;2024-02-15T04:51:49;4.40;;;1.83;;
49131;SDS011;35149;51.196;6.204;2024-02-15T04:54:15;7.35;;;1.88;;
49131;SDS011;35149;51.196;6.204;2024-02-15T04:56:44;4.43;;;1.60;;
49131;SDS011;35149;51.196;6.204;2024-02-15T04:59:12;4.00;;;1.80;;
49131;SDS011;35149;51.196;6.204;2024-02-15T05:01:41;4.30;;;1.42;;
49131;SDS011;35149;51.196;6.204;2024-02-15T05:04:12;4.82;;;1.80;;
49131;SDS011;35149;51.196;6.204;2024-02-15T05:06:40;1.90;;;1.35;;
49131;SDS011;35149;51.196;6.204;2024-02-15T05:09:07;4.60;;;1.88;;
49131;SDS011;35149;51.196;6.204;2024-02-15T05:11:36;4.22;;;1.70;;
49131;SDS011;35149;51.196;6.204;2024-02-15T05:14:08;1.70;;;1.60;;
49131;SDS011;35149;51.196;6.204;2024-02-15T05:16:37;5.22;;;1.58;;
49131;SDS011;35149;51.196;6.204;2024-02-15T05:19:09;4.50;;;1.50;;
49131;SDS011;35149;51.196;6.204;2024-02-15T05:21:39;3.63;;;1.65;;
49131;SDS011;35149;51.196;6.204;2024-02-15T05:24:06;1.58;;;1.35;;
49131;SDS011;35149;51.196;6.204;2024-02-15T05:26:33;3.40;;;1.33;;
49131;SDS011;35149;51.196;6.204;2024-02-15T05:29:00;2.30;;;1.50;;
49131;SDS011;35149;51.196;6.204;2024-02-15T05:31:27;4.63;;;1.40;;
49131;SDS011;35149;51.196;6.204;2024-02-15T05:33:54;3.40;;;1.92;;
49131;SDS011;35149;51.196;6.204;2024-02-15T05:36:21;4.15;;;1.90;;
49131;SDS011;35149;51.196;6.204;2024-02-15T05:38:51;2.55;;;1.80;;
49131;SDS011;35149;51.196;6.204;2024-02-15T05:41:20;3.85;;;1.38;;
49131;SDS011;35149;51.196;6.204;2024-02-15T05:43:47;1.95;;;1.20;;
49131;SDS011;35149;51.196;6.204;2024-02-15T05:46:14;3.42;;;2.20;;
49131;SDS011;35149;51.196;6.204;2024-02-15T05:48:41;3.92;;;1.67;;
49131;SDS011;35149;51.196;6.204;2024-02-15T05:51:08;2.75;;;1.45;;
49131;SDS011;35149;51.196;6.204;2024-02-15T05:53:35;4.50;;;1.73;;
49131;SDS011;35149;51.196;6.204;2024-02-15T05:56:06;3.42;;;2.17;;
49131;SDS011;35149;51.196;6.204;2024-02-15T05:58:34;4.75;;;1.40;;
49131;SDS011;35149;51.196;6.204;2024-02-15T06:01:02;5.43;;;1.58;;
49131;SDS011;35149;51.196;6.204;2024-02-15T06:03:31;3.67;;;1.50;;
49131;SDS011;35149;51.196;6.204;2024-02-15T06:06:00;3.53;;;1.48;;
49131;SDS011;35149;51.196;6.204;2024-02-15T06:08:28;4.18;;;1.52;;
49131;SDS011;35149;51.196;6.204;2024-02-15T06:10:58;2.33;;;1.50;;
49131;SDS011;35149;51.196;6.204;2024-02-15T06:13:25;2.45;;;1.25;;
49131;SDS011;35149;51.196;6.204;2024-02-15T06:15:52;5.22;;;1.60;;
49131;SDS011;35149;51.196;6.204;2024-02-15T06:18:23;4.18;;;1.70;;
49131;SDS011;35149;51.196;6.204;2024-02-15T06:20:54;3.40;;;1.60;;
49131;SDS011;35149;51.196;6.204;2024-02-15T06:23:26;1.98;;;1.40;;
49131;SDS011;35149;51.196;6.204;2024-02-15T06:25:56;3.53;;;1.50;;
49131;SDS011;35149;51.196;6.204;2024-02-15T06:28:24;3.58;;;2.47;;
49131;SDS011;35149;51.196;6.204;2024-02-15T06:31:10;2.95;;;1.90;;
49131;SDS011;35149;51.196;6.204;2024-02-15T06:33:56;2.50;;;1.70;;
49131;SDS011;35149;51.196;6.204;2024-02-15T06:36:46;5.70;;;1.65;;
49131;SDS011;35149;51.196;6.204;2024-02-15T06:39:32;3.42;;;1.42;;
49131;SDS011;35149;51.196;6.204;2024-02-15T06:42:10;4.72;;;2.05;;
49131;SDS011;35149;51.196;6.204;2024-02-15T06:44:43;3.00;;;2.30;;
49131;SDS011;35149;51.196;6.204;2024-02-15T06:47:11;4.18;;;2.63;;
49131;SDS011;35149;51.196;6.204;2024-02-15T06:49:39;4.03;;;2.58;;
49131;SDS011;35149;51.196;6.204;2024-02-15T06:52:07;3.15;;;2.22;;
49131;SDS011;35149;51.196;6.204;2024-02-15T06:54:38;3.88;;;1.77;;
49131;SDS011;35149;51.196;6.204;2024-02-15T06:57:05;2.58;;;1.20;;
49131;SDS011;35149;51.196;6.204;2024-02-15T06:59:32;5.85;;;1.83;;
49131;SDS011;35149;51.196;6.204;2024-02-15T07:02:00;3.55;;;1.33;;
49131;SDS011;35149;51.196;6.204;2024-02-15T07:04:27;2.03;;;1.20;;
49131;SDS011;35149;51.196;6.204;2024-02-15T07:06:55;4.35;;;1.88;;
49131;SDS011;35149;51.196;6.204;2024-02-15T07:09:23;3.10;;;1.33;;
49131;SDS011;35149;51.196;6.204;2024-02-15T07:11:51;4.03;;;1.35;;
49131;SDS011;35149;51.196;6.204;2024-02-15T07:14:18;4.97;;;1.65;;
49131;SDS011;35149;51.196;6.204;2024-02-15T07:16:46;2.50;;;1.58;;
49131;SDS011;35149;51.196;6.204;2024-02-15T07:19:14;3.42;;;1.13;;
49131;SDS011;35149;51.196;6.204;2024-02-15T07:21:42;1.77;;;1.38;;
49131;SDS011;35149;51.196;6.204;2024-02-15T07:24:10;1.92;;;1.38;;
49131;SDS011;35149;51.196;6.204;2024-02-15T07:26:36;3.47;;;1.80;;
49131;SDS011;35149;51.196;6.204;2024-02-15T07:29:03;6.75;;;2.00;;
49131;SDS011;35149;51.196;6.204;2024-02-15T07:31:34;6.72;;;1.70;;
49131;SDS011;35149;51.196;6.204;2024-02-15T07:34:01;4.22;;;2.05;;
49131;SDS011;35149;51.196;6.204;2024-02-15T07:36:30;2.92;;;1.52;;
49131;SDS011;35149;51.196;6.204;2024-02-15T07:38:57;3.50;;;1.27;;
49131;SDS011;35149;51.196;6.204;2024-02-15T07:41:28;3.10;;;1.50;;
49131;SDS011;35149;51.196;6.204;2024-02-15T07:43:55;2.40;;;1.25;;
49131;SDS011;35149;51.196;6.204;2024-02-15T07:46:24;1.63;;;1.50;;
49131;SDS011;35149;51.196;6.204;2024-02-15T07:48:50;4.55;;;1.77;;
49131;SDS011;35149;51.196;6.204;2024-02-15T07:51:18;4.35;;;1.50;;
49131;SDS011;35149;51.196;6.204;2024-02-15T07:53:47;4.07;;;1.65;;
49131;SDS011;35149;51.196;6.204;2024-02-15T07:56:16;3.63;;;1.85;;
49131;SDS011;35149;51.196;6.204;2024-02-15T07:58:44;2.53;;;1.63;;
49131;SDS011;35149;51.196;6.204;2024-02-15T08:01:18;2.20;;;1.48;;
49131;SDS011;35149;51.196;6.204;2024-02-15T08:03:51;2.47;;;1.70;;
49131;SDS011;35149;51.196;6.204;2024-02-15T08:06:19;2.90;;;1.92;;
49131;SDS011;35149;51.196;6.204;2024-02-15T08:08:46;5.05;;;2.13;;
49131;SDS011;35149;51.196;6.204;2024-02-15T08:11:14;4.15;;;2.20;;
49131;SDS011;35149;51.196;6.204;2024-02-15T08:13:48;4.35;;;2.28;;
49131;SDS011;35149;51.196;6.204;2024-02-15T08:16:17;3.08;;;2.05;;
49131;SDS011;35149;51.196;6.204;2024-02-15T08:18:45;3.50;;;1.83;;
49131;SDS011;35149;51.196;6.204;2024-02-15T08:21:13;2.80;;;2.17;;
49131;SDS011;35149;51.196;6.204;2024-02-15T08:23:41;4.35;;;2.60;;
49131;SDS011;35149;51.196;6.204;2024-02-15T08:26:08;3.83;;;2.08;;
49131;SDS011;35149;51.196;6.204;2024-02-15T08:28:37;3.22;;;1.88;;
49131;SDS011;35149;51.196;6.204;2024-02-15T08:31:04;5.43;;;1.90;;
49131;SDS011;35149;51.196;6.204;2024-02-15T08:33:31;3.85;;;2.40;;
49131;SDS011;35149;51.196;6.204;2024-02-15T08:35:58;3.10;;;1.63;;
49131;SDS011;35149;51.196;6.204;2024-02-15T08:38:28;4.28;;;2.17;;
49131;SDS011;35149;51.196;6.204;2024-02-15T08:40:55;4.28;;;2.92;;
49131;SDS011;35149;51.196;6.204;2024-02-15T08:43:22;3.88;;;1.75;;
49131;SDS011;35149;51.196;6.204;2024-02-15T08:45:49;3.92;;;2.45;;
49131;SDS011;35149;51.196;6.204;2024-02-15T08:48:16;6.50;;;2.17;;
49131;SDS011;35149;51.196;6.204;2024-02-15T08:50:46;4.03;;;2.15;;
49131;SDS011;35149;51.196;6.204;2024-02-15T08:53:13;5.07;;;2.10;;
49131;SDS011;35149;51.196;6.204;2024-02-15T08:55:41;2.88;;;2.40;;
49131;SDS011;35149;51.196;6.204;2024-02-15T08:58:08;3.30;;;2.63;;
49131;SDS011;35149;51.196;6.204;2024-02-15T09:00:36;4.20;;;2.88;;
49131;SDS011;35149;51.196;6.204;2024-02-15T09:03:07;4.88;;;3.25;;
49131;SDS011;35149;51.196;6.204;2024-02-15T09:05:34;4.97;;;2.90;;
49131;SDS011;35149;51.196;6.204;2024-02-15T09:08:01;2.92;;;2.55;;
49131;SDS011;35149;51.196;6.204;2024-02-15T09:10:30;6.90;;;3.28;;
49131;SDS011;35149;51.196;6.204;2024-02-15T09:12:57;6.78;;;2.83;;
49131;SDS011;35149;51.196;6.204;2024-02-15T09:15:24;7.82;;;3.40;;
49131;SDS011;35149;51.196;6.204;2024-02-15T09:17:51;6.82;;;3.50;;
49131;SDS011;35149;51.196;6.204;2024-02-15T09:20:20;4.10;;;3.28;;
49131;SDS011;35149;51.196;6.204;2024-02-15T09:22:48;4.72;;;3.97;;
49131;SDS011;35149;51.196;6.204;2024-02-15T09:25:16;4.85;;;3.03;;
49131;SDS011;35149;51.196;6.204;2024-02-15T09:27:46;3.05;;;2.50;;
49131;SDS011;35149;51.196;6.204;2024-02-15T09:30:13;4.10;;;3.03;;
49131;SDS011;35149;51.196;6.204;2024-02-15T09:32:42;3.63;;;2.30;;
49131;SDS011;35149;51.196;6.204;2024-02-15T09:35:10;4.15;;;2.20;;
49131;SDS011;35149;51.196;6.204;2024-02-15T09:37:47;4.40;;;1.77;;
49131;SDS011;35149;51.196;6.204;2024-02-15T09:40:16;4.05;;;2.10;;
49131;SDS011;35149;51.196;6.204;2024-02-15T09:42:44;2.97;;;2.10;;
49131;SDS011;35149;51.196;6.204;2024-02-15T09:45:12;2.58;;;1.83;;
49131;SDS011;35149;51.196;6.204;2024-02-15T09:47:42;3.47;;;1.45;;
49131;SDS011;35149;51.196;6.204;2024-02-15T09:50:13;1.70;;;1.50;;
49131;SDS011;35149;51.196;6.204;2024-02-15T09:52:50;2.83;;;1.50;;
49131;SDS011;35149;51.196;6.204;2024-02-15T09:55:18;2.08;;;1.30;;
49131;SDS011;35149;51.196;6.204;2024-02-15T09:57:46;3.13;;;1.40;;
49131;SDS011;35149;51.196;6.204;2024-02-15T10:00:13;1.98;;;1.00;;
49131;SDS011;35149;51.196;6.204;2024-02-15T10:02:51;3.67;;;1.20;;
49131;SDS011;35149;51.196;6.204;2024-02-15T10:05:22;2.47;;;1.40;;
49131;SDS011;35149;51.196;6.204;2024-02-15T10:07:49;2.35;;;1.73;;
49131;SDS011;35149;51.196;6.204;2024-02-15T10:10:22;1.52;;;1.00;;
49131;SDS011;35149;51.196;6.204;2024-02-15T10:12:52;2.10;;;0.98;;
49131;SDS011;35149;51.196;6.204;2024-02-15T10:15:38;3.63;;;1.10;;
49131;SDS011;35149;51.196;6.204;2024-02-15T10:18:07;3.25;;;1.30;;
49131;SDS011;35149;51.196;6.204;2024-02-15T10:20:40;1.40;;;0.98;;
49131;SDS011;35149;51.196;6.204;2024-02-15T10:23:11;2.63;;;1.13;;
49131;SDS011;35149;51.196;6.204;2024-02-15T10:25:45;2.67;;;1.17;;
49131;SDS011;35149;51.196;6.204;2024-02-15T10:28:12;2.35;;;1.05;;
49131;SDS011;35149;51.196;6.204;2024-02-15T10:30:42;1.33;;;1.10;;
49131;SDS011;35149;51.196;6.204;2024-02-15T10:33:18;1.52;;;1.05;;
49131;SDS011;35149;51.196;6.204;2024-02-15T10:35:48;1.88;;;0.90;;
49131;SDS011;35149;51.196;6.204;2024-02-15T10:38:14;2.08;;;1.40;;
49131;SDS011;35149;51.196;6.204;2024-02-15T10:40:44;2.22;;;0.90;;
49131;SDS011;35149;51.196;6.204;2024-02-15T10:43:12;1.42;;;0.73;;
49131;SDS011;35149;51.196;6.204;2024-02-15T10:45:41;3.63;;;0.82;;
49131;SDS011;35149;51.196;6.204;2024-02-15T10:48:09;2.67;;;0.80;;
49131;SDS011;35149;51.196;6.204;2024-02-15T10:50:39;2.10;;;1.40;;
49131;SDS011;35149;51.196;6.204;2024-02-15T10:53:10;4.03;;;1.20;;
49131;SDS011;35149;51.196;6.204;2024-02-15T10:56:25;1.45;;;0.90;;
49131;SDS011;35149;51.196;6.204;2024-02-15T10:58:38;1.38;;;0.80;;
49131;SDS011;35149;51.196;6.204;2024-02-15T11:01:13;1.58;;;0.90;;
49131;SDS011;35149;51.196;6.204;2024-02-15T11:03:48;0.90;;;0.77;;
49131;SDS011;35149;51.196;6.204;2024-02-15T11:06:20;3.03;;;0.70;;
49131;SDS011;35149;51.196;6.204;2024-02-15T11:08:50;3.53;;;0.90;;
49131;SDS011;35149;51.196;6.204;2024-02-15T11:11:17;0.90;;;0.50;;
49131;SDS011;35149;51.196;6.204;2024-02-15T11:13:46;1.55;;;0.80;;
49131;SDS011;35149;51.196;6.204;2024-02-15T11:19:07;2.22;;;0.80;;
49131;SDS011;35149;51.196;6.204;2024-02-15T11:21:52;2.30;;;0.80;;
49131;SDS011;35149;51.196;6.204;2024-02-15T11:24:25;2.30;;;1.08;;
49131;SDS011;35149;51.196;6.204;2024-02-15T11:26:59;3.35;;;1.00;;
49131;SDS011;35149;51.196;6.204;2024-02-15T11:35:14;2.80;;;0.82;;
49131;SDS011;35149;51.196;6.204;2024-02-15T11:40:16;2.15;;;0.95;;
49131;SDS011;35149;51.196;6.204;2024-02-15T11:42:43;1.27;;;1.10;;
49131;SDS011;35149;51.196;6.204;2024-02-15T11:45:11;1.52;;;1.00;;
49131;SDS011;35149;51.196;6.204;2024-02-15T11:47:39;0.75;;;0.70;;
49131;SDS011;35149;51.196;6.204;2024-02-15T11:50:09;2.28;;;0.65;;
49131;SDS011;35149;51.196;6.204;2024-02-15T11:52:39;2.30;;;1.10;;
49131;SDS011;35149;51.196;6.204;2024-02-15T11:55:08;2.67;;;1.00;;
49131;SDS011;35149;51.196;6.204;2024-02-15T11:57:40;2.28;;;0.80;;
49131;SDS011;35149;51.196;6.204;2024-02-15T12:00:26;2.25;;;0.70;;
49131;SDS011;35149;51.196;6.204;2024-02-15T12:03:13;2.08;;;1.20;;
49131;SDS011;35149;51.196;6.204;2024-02-15T12:05:59;1.65;;;0.80;;
49131;SDS011;35149;51.196;6.204;2024-02-15T12:08:46;2.47;;;0.75;;
49131;SDS011;35149;51.196;6.204;2024-02-15T12:11:31;1.13;;;0.70;;
49131;SDS011;35149;51.196;6.204;2024-02-15T12:14:17;1.00;;;0.60;;
49131;SDS011;35149;51.196;6.204;2024-02-15T12:17:10;1.30;;;0.60;;
49131;SDS011;35149;51.196;6.204;2024-02-15T12:19:57;1.42;;;0.60;;
49131;SDS011;35149;51.196;6.204;2024-02-15T12:22:36;2.80;;;1.52;;
49131;SDS011;35149;51.196;6.204;2024-02-15T12:25:07;1.80;;;0.50;;
49131;SDS011;35149;51.196;6.204;2024-02-15T12:27:43;3.10;;;0.80;;
49131;SDS011;35149;51.196;6.204;2024-02-15T12:30:14;1.58;;;0.82;;
49131;SDS011;35149;51.196;6.204;2024-02-15T12:32:48;2.88;;;0.63;;
49131;SDS011;35149;51.196;6.204;2024-02-15T12:35:19;0.98;;;0.60;;
49131;SDS011;35149;51.196;6.204;2024-02-15T12:37:47;1.67;;;0.77;;
49131;SDS011;35149;51.196;6.204;2024-02-15T12:40:30;1.88;;;0.63;;
49131;SDS011;35149;51.196;6.204;2024-02-15T12:42:58;0.60;;;0.60;;
49131;SDS011;35149;51.196;6.204;2024-02-15T12:45:26;0.70;;;0.50;;
49131;SDS011;35149;51.196;6.204;2024-02-15T12:47:54;2.03;;;0.60;;
49131;SDS011;35149;51.196;6.204;2024-02-15T12:50:22;1.58;;;0.80;;
49131;SDS011;35149;51.196;6.204;2024-02-15T12:52:54;1.92;;;0.65;;
49131;SDS011;35149;51.196;6.204;2024-02-15T12:55:22;1.50;;;0.55;;
49131;SDS011;35149;51.196;6.204;2024-02-15T12:57:53;3.10;;;0.95;;
49131;SDS011;35149;51.196;6.204;2024-02-15T13:00:23;1.55;;;1.15;;
49131;SDS011;35149;51.196;6.204;2024-02-15T13:05:24;1.48;;;0.90;;
49131;SDS011;35149;51.196;6.204;2024-02-15T13:07:53;2.67;;;0.77;;
49131;SDS011;35149;51.196;6.204;2024-02-15T13:10:36;1.60;;;0.80;;
49131;SDS011;35149;51.196;6.204;2024-02-15T13:13:05;0.80;;;0.50;;
49131;SDS011;35149;51.196;6.204;2024-02-15T13:15:32;1.25;;;1.15;;
49131;SDS011;35149;51.196;6.204;2024-02-15T13:18:00;2.22;;;0.88;;
49131;SDS011;35149;51.196;6.204;2024-02-15T13:20:30;2.95;;;0.85;;
49131;SDS011;35149;51.196;6.204;2024-02-15T13:23:02;0.95;;;0.85;;
49131;SDS011;35149;51.196;6.204;2024-02-15T13:25:41;3.63;;;0.70;;
49131;SDS011;35149;51.196;6.204;2024-02-15T13:28:09;2.95;;;1.00;;
49131;SDS011;35149;51.196;6.204;2024-02-15T13:30:39;1.27;;;0.47;;
49131;SDS011;35149;51.196;6.204;2024-02-15T13:33:07;2.60;;;0.60;;
49131;SDS011;35149;51.196;6.204;2024-02-15T13:35:34;1.02;;;0.90;;
49131;SDS011;35149;51.196;6.204;2024-02-15T13:38:02;1.38;;;0.80;;
49131;SDS011;35149;51.196;6.204;2024-02-15T13:40:29;1.17;;;0.50;;
49131;SDS011;35149;51.196;6.204;2024-02-15T13:42:58;0.50;;;0.50;;
49131;SDS011;35149;51.196;6.204;2024-02-15T13:45:29;0.77;;;0.60;;
49131;SDS011;35149;51.196;6.204;2024-02-15T13:47:59;1.42;;;0.70;;
49131;SDS011;35149;51.196;6.204;2024-02-15T13:50:31;1.98;;;0.65;;
49131;SDS011;35149;51.196;6.204;2024-02-15T13:52:59;2.20;;;0.50;;
49131;SDS011;35149;51.196;6.204;2024-02-15T13:55:26;2.45;;;0.88;;
49131;SDS011;35149;51.196;6.204;2024-02-15T13:57:54;2.83;;;0.70;;
49131;SDS011;35149;51.196;6.204;2024-02-15T14:00:23;3.10;;;0.55;;
49131;SDS011;35149;51.196;6.204;2024-02-15T14:02:56;1.77;;;0.70;;
49131;SDS011;35149;51.196;6.204;2024-02-15T14:05:25;1.60;;;1.23;;
49131;SDS011;35149;51.196;6.204;2024-02-15T14:07:55;1.08;;;0.50;;
49131;SDS011;35149;51.196;6.204;2024-02-15T14:10:24;1.88;;;0.73;;
49131;SDS011;35149;51.196;6.204;2024-02-15T14:12:53;0.93;;;0.68;;
49131;SDS011;35149;51.196;6.204;2024-02-15T14:15:32;0.85;;;0.47;;
49131;SDS011;35149;51.196;6.204;2024-02-15T14:18:10;7.72;;;0.63;;
49131;SDS011;35149;51.196;6.204;2024-02-15T14:20:42;1.75;;;1.00;;
49131;SDS011;35149;51.196;6.204;2024-02-15T14:23:09;1.30;;;0.93;;
49131;SDS011;35149;51.196;6.204;2024-02-15T14:25:40;1.48;;;0.63;;
49131;SDS011;35149;51.196;6.204;2024-02-15T14:28:06;2.13;;;0.55;;
49131;SDS011;35149;51.196;6.204;2024-02-15T14:30:34;1.80;;;0.70;;
49131;SDS011;35149;51.196;6.204;2024-02-15T14:33:20;2.05;;;0.80;;
49131;SDS011;35149;51.196;6.204;2024-02-15T14:35:49;1.23;;;0.77;;
49131;SDS011;35149;51.196;6.204;2024-02-15T14:38:19;0.88;;;0.80;;
49131;SDS011;35149;51.196;6.204;2024-02-15T14:40:48;1.00;;;0.50;;
49131;SDS011;35149;51.196;6.204;2024-02-15T14:43:27;2.05;;;1.05;;
49131;SDS011;35149;51.196;6.204;2024-02-15T14:45:54;1.33;;;0.52;;
49131;SDS011;35149;51.196;6.204;2024-02-15T14:48:23;1.98;;;1.27;;
49131;SDS011;35149;51.196;6.204;2024-02-15T14:50:51;1.73;;;0.93;;
49131;SDS011;35149;51.196;6.204;2024-02-15T14:53:20;1.05;;;0.60;;
49131;SDS011;35149;51.196;6.204;2024-02-15T14:55:47;2.25;;;0.70;;
49131;SDS011;35149;51.196;6.204;2024-02-15T14:58:14;1.85;;;0.95;;
49131;SDS011;35149;51.196;6.204;2024-02-15T15:00:44;2.85;;;0.90;;
49131;SDS011;35149;51.196;6.204;2024-02-15T15:03:12;1.95;;;1.33;;
49131;SDS011;35149;51.196;6.204;2024-02-15T15:05:40;1.67;;;0.60;;
49131;SDS011;35149;51.196;6.204;2024-02-15T15:08:29;1.52;;;0.80;;
49131;SDS011;35149;51.196;6.204;2024-02-15T15:11:14;3.92;;;0.93;;
49131;SDS011;35149;51.196;6.204;2024-02-15T15:14:00;2.75;;;1.38;;
49131;SDS011;35149;51.196;6.204;2024-02-15T15:16:28;0.90;;;0.70;;